createdAt,value
2024-05-09T00:01:37.405Z,74.13
2024-05-09T00:04:07.724Z,73.62
2024-05-09T00:06:37.986Z,73.49
2024-05-09T00:09:08.474Z,73.11
2024-05-09T00:11:38.781Z,72.88
2024-05-09T00:14:08.978Z,73.50
2024-05-09T00:16:39.346Z,73.23
2024-05-09T00:19:09.532Z,73.09
2024-05-09T00:21:43.507Z,73.37
2024-05-09T00:24:13.909Z,73.01
2024-05-09T00:26:43.956Z,73.44
2024-05-09T00:29:14.316Z,72.82
2024-05-09T00:31:44.796Z,72.89
2024-05-09T00:34:15.435Z,72.49
2024-05-09T00:36:45.622Z,73.42
2024-05-09T00:39:15.953Z,72.83
2024-05-09T00:41:46.214Z,73.02
2024-05-09T00:44:16.495Z,73.24
2024-05-09T00:46:46.378Z,73.06
2024-05-09T00:49:17.031Z,73.41
2024-05-09T00:51:47.185Z,73.22
2024-05-09T00:54:20.100Z,73.15
2024-05-09T00:56:52.431Z,72.82
2024-05-09T00:59:23.195Z,73.16
2024-05-09T01:01:53.780Z,73.53
2024-05-09T01:04:24.569Z,73.82
2024-05-09T01:06:55.088Z,73.74
2024-05-09T01:09:25.242Z,73.77
2024-05-09T01:11:55.705Z,73.45
2024-05-09T01:14:25.935Z,73.53
2024-05-09T01:16:56.055Z,73.78
2024-05-09T01:19:32.421Z,73.69
2024-05-09T01:22:04.297Z,73.75
2024-05-09T01:24:34.007Z,73.60
2024-05-09T01:27:04.192Z,73.97
2024-05-09T01:29:34.023Z,74.07
2024-05-09T01:32:04.990Z,74.31
2024-05-09T01:34:35.185Z,74.44
2024-05-09T01:37:05.264Z,75.11
2024-05-09T01:39:35.418Z,74.95
2024-05-09T01:42:05.665Z,74.96
2024-05-09T01:44:35.772Z,75.15
2024-05-09T01:47:05.971Z,75.65
2024-05-09T01:49:39.962Z,75.49
2024-05-09T01:52:09.887Z,75.70
2024-05-09T01:54:39.952Z,75.86
2024-05-09T01:57:10.104Z,75.78
2024-05-09T01:59:40.162Z,75.95
2024-05-09T02:02:10.464Z,75.99
2024-05-09T02:04:40.925Z,76.49
2024-05-09T02:07:11.334Z,76.27
2024-05-09T02:09:41.499Z,76.29
2024-05-09T02:12:12.030Z,76.83
2024-05-09T02:14:42.598Z,76.60
2024-05-09T02:17:13.260Z,76.38
2024-05-09T02:19:44.051Z,76.38
2024-05-09T02:22:14.305Z,76.54
2024-05-09T02:24:44.357Z,76.40
2024-05-09T02:27:14.637Z,77.03
2024-05-09T02:29:45.920Z,77.50
2024-05-09T02:32:16.130Z,77.70
2024-05-09T02:34:46.433Z,77.50
2024-05-09T02:37:16.991Z,77.68
2024-05-09T02:39:44.480Z,77.55
2024-05-09T02:42:14.582Z,77.23
2024-05-09T02:44:42.007Z,77.31
2024-05-09T02:47:12.339Z,77.96
2024-05-09T02:49:40.296Z,77.83
2024-05-09T02:52:10.412Z,77.94
2024-05-09T02:54:37.876Z,77.99
2024-05-09T02:57:08.206Z,77.95
2024-05-09T02:59:35.698Z,77.81
2024-05-09T03:02:05.688Z,77.53
2024-05-09T03:04:33.521Z,77.77
2024-05-09T03:07:03.687Z,77.91
2024-05-09T03:09:31.147Z,78.03
2024-05-09T03:12:01.294Z,78.01
2024-05-09T03:14:29.197Z,77.88
2024-05-09T03:16:59.434Z,77.39
2024-05-09T03:19:26.954Z,77.31
2024-05-09T03:21:57.071Z,77.68
2024-05-09T03:24:24.698Z,77.66
2024-05-09T03:26:54.860Z,77.58
2024-05-09T03:29:22.562Z,77.60
2024-05-09T03:31:52.956Z,77.99
2024-05-09T03:34:20.420Z,77.91
2024-05-09T03:36:50.562Z,77.59
2024-05-09T03:39:20.744Z,77.26
2024-05-09T03:41:50.758Z,77.28
2024-05-09T03:44:47.518Z,76.87
2024-05-09T03:47:14.658Z,77.53
2024-05-09T03:49:44.868Z,77.78
2024-05-09T03:52:12.345Z,77.42
2024-05-09T03:54:49.188Z,77.41
2024-05-09T03:57:16.640Z,76.87
2024-05-09T03:59:46.670Z,76.77
2024-05-09T04:02:14.265Z,76.63
2024-05-09T04:04:45.135Z,76.88
2024-05-09T04:07:12.660Z,76.99
2024-05-09T04:09:42.785Z,76.83
2024-05-09T04:12:10.373Z,76.98
2024-05-09T04:14:41.324Z,76.98
2024-05-09T04:17:08.946Z,77.04
2024-05-09T04:19:38.678Z,76.68
2024-05-09T04:22:06.132Z,77.14
2024-05-09T04:24:36.538Z,77.21
2024-05-09T04:27:04.089Z,77.42
2024-05-09T04:29:37.478Z,77.71
2024-05-09T04:32:05.769Z,77.62
2024-05-09T04:34:37.957Z,77.67
2024-05-09T04:37:05.751Z,78.02
2024-05-09T04:39:35.778Z,77.18
2024-05-09T04:42:03.288Z,77.44
2024-05-09T04:44:33.329Z,77.03
2024-05-09T04:47:00.848Z,76.80
2024-05-09T04:49:30.766Z,76.27
2024-05-09T04:51:58.278Z,76.15
2024-05-09T04:54:35.790Z,76.28
2024-05-09T04:57:04.169Z,76.26
2024-05-09T04:59:34.483Z,75.56
2024-05-09T05:02:02.119Z,75.61
2024-05-09T05:04:32.017Z,75.59
2024-05-09T05:07:02.683Z,75.14
2024-05-09T05:09:32.753Z,74.82
2024-05-09T05:12:02.066Z,74.85
2024-05-09T05:14:31.920Z,74.86
2024-05-09T05:16:59.596Z,74.98
2024-05-09T05:19:29.798Z,75.54
2024-05-09T05:21:57.320Z,75.70
2024-05-09T05:24:28.032Z,75.90
2024-05-09T05:26:55.446Z,75.87
2024-05-09T05:29:25.558Z,75.69
2024-05-09T05:31:53.208Z,75.07
2024-05-09T05:34:23.643Z,75.47
2024-05-09T05:36:51.053Z,75.89
2024-05-09T05:39:21.157Z,75.80
2024-05-09T05:41:48.684Z,75.43
2024-05-09T05:44:18.785Z,75.29
2024-05-09T05:46:46.279Z,75.53
2024-05-09T05:49:16.947Z,75.33
2024-05-09T05:51:44.490Z,74.55
2024-05-09T05:54:14.530Z,74.33
2024-05-09T05:56:42.182Z,74.00
2024-05-09T05:59:14.063Z,73.25
2024-05-09T06:01:42.740Z,72.55
2024-05-09T06:04:12.924Z,72.42
2024-05-09T06:06:40.441Z,71.47
2024-05-09T06:09:10.525Z,71.40
2024-05-09T06:11:40.786Z,70.53
2024-05-09T06:14:11.558Z,70.87
2024-05-09T06:16:39.002Z,68.58
2024-05-09T06:19:09.088Z,67.85
2024-05-09T06:21:36.616Z,67.37
2024-05-09T06:24:06.864Z,66.23
2024-05-09T06:26:34.449Z,66.55
2024-05-09T06:29:04.991Z,66.08
2024-05-09T06:31:32.542Z,65.32
2024-05-09T06:34:02.627Z,64.84
2024-05-09T06:36:30.130Z,62.88
2024-05-09T06:39:00.145Z,62.26
2024-05-09T06:41:27.654Z,60.63
2024-05-09T06:43:57.774Z,59.84
2024-05-09T06:46:26.141Z,59.01
2024-05-09T06:48:56.490Z,57.14
2024-05-09T06:51:24.177Z,57.14
2024-05-09T06:53:54.411Z,57.42
2024-05-09T06:56:21.928Z,56.95
2024-05-09T06:58:53.303Z,55.91
2024-05-09T07:01:21.145Z,54.36
2024-05-09T07:03:51.463Z,53.16
2024-05-09T07:06:18.941Z,52.77
2024-05-09T07:08:51.931Z,52.64
2024-05-09T07:11:20.000Z,52.35
2024-05-09T07:13:50.278Z,52.96
2024-05-09T07:16:17.794Z,51.06
2024-05-09T07:18:49.840Z,51.50
2024-05-09T07:21:17.506Z,50.70
2024-05-09T07:23:47.733Z,50.79
2024-05-09T07:26:15.402Z,51.26
2024-05-09T07:28:45.783Z,51.16
2024-05-09T07:31:13.263Z,51.05
2024-05-09T07:33:43.539Z,50.21
2024-05-09T07:36:11.037Z,50.39
2024-05-09T07:38:41.104Z,50.20
2024-05-09T07:41:08.788Z,49.46
2024-05-09T07:43:38.981Z,48.31
2024-05-09T07:47:04.550Z,48.95
2024-05-09T07:50:34.742Z,49.05
2024-05-09T07:54:17.348Z,47.72
2024-05-09T07:56:45.303Z,45.89
2024-05-09T07:59:15.429Z,45.67
2024-05-09T08:01:42.907Z,46.80
2024-05-09T08:04:13.141Z,46.39
2024-05-09T08:06:43.302Z,45.46
2024-05-09T08:09:16.668Z,44.74
2024-05-09T08:11:49.418Z,45.56
2024-05-09T08:14:16.902Z,45.28
2024-05-09T08:16:46.945Z,44.66
2024-05-09T08:19:14.461Z,43.18
2024-05-09T08:21:44.634Z,44.02
2024-05-09T08:24:12.244Z,44.50
2024-05-09T08:26:42.279Z,44.35
2024-05-09T08:29:10.550Z,44.45
2024-05-09T08:31:41.115Z,44.31
2024-05-09T08:34:08.796Z,42.05
2024-05-09T08:36:40.812Z,42.87
2024-05-09T08:39:08.404Z,44.05
2024-05-09T08:41:44.655Z,43.46
2024-05-09T08:44:12.079Z,42.68
2024-05-09T08:46:42.194Z,41.66
2024-05-09T08:49:10.046Z,42.58
2024-05-09T08:51:40.235Z,41.79
2024-05-09T08:54:07.821Z,40.69
2024-05-09T08:56:38.338Z,43.07
2024-05-09T08:59:09.088Z,42.23
2024-05-09T09:01:40.911Z,42.41
2024-05-09T09:04:09.364Z,41.70
2024-05-09T09:06:40.696Z,41.58
2024-05-09T09:09:10.016Z,41.35
2024-05-09T09:11:40.106Z,41.65
2024-05-09T09:14:07.591Z,42.38
2024-05-09T09:16:38.394Z,41.14
2024-05-09T09:19:06.199Z,40.71
2024-05-09T09:21:36.249Z,42.17
2024-05-09T09:24:03.776Z,43.05
2024-05-09T09:26:34.291Z,42.29
2024-05-09T09:29:01.934Z,42.87
2024-05-09T09:31:33.555Z,43.18
2024-05-09T09:34:09.280Z,41.56
2024-05-09T09:36:39.996Z,41.95
2024-05-09T09:39:09.711Z,41.93
2024-05-09T09:41:40.842Z,42.78
2024-05-09T09:44:09.684Z,41.74
2024-05-09T09:46:40.194Z,42.31
2024-05-09T09:49:08.041Z,43.51
2024-05-09T09:51:43.622Z,44.36
2024-05-09T09:54:12.440Z,42.68
2024-05-09T09:56:42.501Z,41.08
2024-05-09T09:59:14.357Z,41.71
2024-05-09T10:01:46.856Z,43.89
2024-05-09T10:04:17.036Z,43.08
2024-05-09T10:07:00.296Z,43.17
2024-05-09T10:09:28.105Z,42.89
2024-05-09T10:12:00.369Z,42.93
2024-05-09T10:14:30.980Z,43.98
2024-05-09T10:17:08.158Z,43.66
2024-05-09T10:19:35.692Z,42.72
2024-05-09T10:22:08.909Z,43.90
2024-05-09T10:24:46.718Z,44.33
2024-05-09T10:27:16.782Z,44.24
2024-05-09T10:30:00.888Z,44.39
2024-05-09T10:32:32.747Z,44.85
2024-05-09T10:35:02.704Z,44.94
2024-05-09T10:37:34.791Z,45.54
2024-05-09T10:40:05.492Z,45.76
2024-05-09T10:42:37.509Z,46.57
2024-05-09T10:45:05.207Z,45.45
2024-05-09T10:47:35.275Z,45.45
2024-05-09T10:50:04.937Z,45.12
2024-05-09T10:52:38.140Z,44.83
2024-05-09T10:55:06.300Z,45.37
2024-05-09T10:57:43.393Z,44.59
2024-05-09T11:00:18.976Z,45.03
2024-05-09T11:02:53.576Z,44.76
2024-05-09T11:05:21.627Z,43.88
2024-05-09T11:07:51.864Z,43.25
2024-05-09T11:10:27.306Z,43.38
2024-05-09T11:13:02.166Z,43.43
2024-05-09T11:15:42.694Z,44.24
2024-05-09T11:18:25.878Z,44.03
2024-05-09T11:20:55.684Z,45.02
2024-05-09T11:23:30.700Z,44.21
2024-05-09T11:25:58.986Z,41.65
2024-05-09T11:28:30.886Z,42.65
2024-05-09T11:31:09.757Z,42.18
2024-05-09T11:33:48.243Z,43.18
2024-05-09T11:36:16.288Z,43.83
2024-05-09T11:38:46.314Z,43.54
2024-05-09T11:41:19.601Z,42.44
2024-05-09T11:43:49.722Z,40.90
2024-05-09T11:46:17.399Z,40.95
2024-05-09T11:48:47.727Z,41.90
2024-05-09T11:51:15.292Z,43.23
2024-05-09T11:53:45.286Z,42.88
2024-05-09T11:56:15.407Z,42.03
2024-05-09T11:58:45.416Z,41.96
2024-05-09T12:01:12.956Z,41.81
2024-05-09T12:03:43.249Z,42.71
2024-05-09T12:06:10.816Z,41.47
2024-05-09T12:08:41.181Z,41.90
2024-05-09T12:11:08.881Z,41.57
2024-05-09T12:13:38.995Z,42.68
2024-05-09T12:16:06.645Z,43.57
2024-05-09T12:18:36.856Z,43.88
2024-05-09T12:21:04.691Z,42.50
2024-05-09T12:23:34.743Z,44.40
2024-05-09T12:26:03.051Z,45.77
2024-05-09T12:28:33.247Z,44.96
2024-05-09T12:31:00.785Z,44.94
2024-05-09T12:33:30.971Z,44.40
2024-05-09T12:35:58.591Z,45.12
2024-05-09T12:38:28.803Z,44.57
2024-05-09T12:40:56.503Z,44.49
2024-05-09T12:43:26.713Z,44.42
2024-05-09T12:45:54.305Z,42.83
2024-05-09T12:48:24.555Z,43.16
2024-05-09T12:50:52.127Z,43.05
2024-05-09T12:53:22.199Z,42.99
2024-05-09T12:55:56.704Z,43.83
2024-05-09T12:58:30.500Z,43.49
2024-05-09T13:00:58.104Z,44.20
2024-05-09T13:03:28.357Z,44.69
2024-05-09T13:05:55.639Z,45.95
2024-05-09T13:08:25.713Z,45.97
2024-05-09T13:10:53.365Z,47.23
2024-05-09T13:13:23.445Z,46.15
2024-05-09T13:15:51.014Z,43.12
2024-05-09T13:18:21.270Z,44.13
2024-05-09T13:20:48.717Z,43.94
2024-05-09T13:23:18.832Z,43.52
2024-05-09T13:25:46.396Z,44.35
2024-05-09T13:28:16.959Z,44.49
2024-05-09T13:30:44.535Z,44.21
2024-05-09T13:33:15.563Z,44.60
2024-05-09T13:35:47.390Z,43.96
2024-05-09T13:38:21.957Z,43.78
2024-05-09T13:40:50.541Z,43.81
2024-05-09T13:43:22.044Z,43.47
2024-05-09T13:45:50.052Z,44.96
2024-05-09T13:48:20.479Z,45.88
2024-05-09T13:50:48.092Z,46.10
2024-05-09T13:53:18.127Z,45.05
2024-05-09T13:55:45.539Z,45.51
2024-05-09T13:58:15.766Z,45.32
2024-05-09T14:00:47.964Z,45.25
2024-05-09T14:03:20.784Z,44.86
2024-05-09T14:05:50.893Z,44.77
2024-05-09T14:08:22.794Z,44.73
2024-05-09T14:10:50.831Z,43.03
2024-05-09T14:13:21.377Z,43.04
2024-05-09T14:15:49.487Z,43.21
2024-05-09T14:18:20.159Z,43.01
2024-05-09T14:20:47.585Z,43.86
2024-05-09T14:23:19.707Z,44.01
2024-05-09T14:25:50.113Z,44.00
2024-05-09T14:28:23.050Z,43.42
2024-05-09T14:30:50.828Z,42.29
2024-05-09T14:33:26.566Z,43.29
2024-05-09T14:35:54.590Z,43.76
2024-05-09T14:38:25.470Z,43.68
2024-05-09T14:40:53.193Z,43.57
2024-05-09T14:43:23.465Z,43.41
2024-05-09T14:45:51.059Z,43.09
2024-05-09T14:48:22.042Z,43.65
2024-05-09T14:50:49.676Z,44.39
2024-05-09T14:53:19.732Z,44.32
2024-05-09T14:55:49.518Z,43.92
2024-05-09T14:58:20.135Z,41.87
2024-05-09T15:00:50.889Z,42.56
2024-05-09T15:03:22.803Z,41.71
2024-05-09T15:05:51.477Z,41.94
2024-05-09T15:08:22.506Z,41.41
2024-05-09T15:10:50.673Z,42.84
2024-05-09T15:13:22.017Z,41.48
2024-05-09T15:15:49.683Z,42.03
2024-05-09T15:18:20.643Z,42.04
2024-05-09T15:20:48.458Z,42.99
2024-05-09T15:23:18.679Z,42.77
2024-05-09T15:25:46.111Z,43.19
2024-05-09T15:28:16.507Z,43.50
2024-05-09T15:30:46.509Z,43.29
2024-05-09T15:33:17.564Z,43.17
2024-05-09T15:35:46.782Z,44.68
2024-05-09T15:38:18.378Z,45.26
2024-05-09T15:40:46.313Z,45.18
2024-05-09T15:43:16.862Z,44.22
2024-05-09T15:45:44.497Z,42.72
2024-05-09T15:48:14.957Z,42.21
2024-05-09T15:50:43.072Z,42.22
2024-05-09T15:53:15.189Z,43.48
2024-05-09T15:55:43.291Z,42.53
2024-05-09T15:58:13.579Z,42.08
2024-05-09T16:00:44.763Z,42.75
2024-05-09T16:03:16.502Z,43.34
2024-05-09T16:05:45.709Z,43.38
2024-05-09T16:08:17.326Z,43.87
2024-05-09T16:10:46.335Z,44.05
2024-05-09T16:13:18.041Z,43.32
2024-05-09T16:15:46.000Z,43.51
2024-05-09T16:18:16.736Z,43.30
2024-05-09T16:20:46.313Z,42.65
2024-05-09T16:23:18.599Z,43.48
2024-05-09T16:25:48.221Z,43.34
2024-05-09T16:28:19.169Z,43.44
2024-05-09T16:30:47.724Z,43.72
2024-05-09T16:33:19.430Z,43.60
2024-05-09T16:35:47.215Z,43.97
2024-05-09T16:38:17.196Z,43.70
2024-05-09T16:40:44.777Z,45.13
2024-05-09T16:43:15.768Z,43.30
2024-05-09T16:45:44.853Z,43.64
2024-05-09T16:48:15.651Z,43.90
2024-05-09T16:50:43.633Z,44.09
2024-05-09T16:53:13.813Z,45.38
2024-05-09T16:55:42.560Z,44.86
2024-05-09T16:58:13.353Z,44.76
2024-05-09T17:00:43.409Z,44.45
2024-05-09T17:03:17.272Z,43.69
2024-05-09T17:05:46.868Z,43.86
2024-05-09T17:08:19.948Z,44.00
2024-05-09T17:10:49.228Z,44.18
2024-05-09T17:13:20.546Z,44.24
2024-05-09T17:15:51.439Z,45.19
2024-05-09T17:18:21.917Z,45.07
2024-05-09T17:20:50.344Z,45.38
2024-05-09T17:23:20.484Z,45.32
2024-05-09T17:25:47.976Z,45.13
2024-05-09T17:28:18.090Z,45.74
2024-05-09T17:30:45.609Z,45.83
2024-05-09T17:33:17.745Z,45.83
2024-05-09T17:35:50.714Z,46.04
2024-05-09T17:38:18.895Z,45.29
2024-05-09T17:40:49.031Z,44.37
2024-05-09T17:43:16.618Z,44.46
2024-05-09T17:45:46.750Z,44.93
2024-05-09T17:48:15.126Z,45.02
2024-05-09T17:50:45.279Z,44.91
2024-05-09T17:53:12.962Z,45.83
2024-05-09T17:55:43.086Z,45.73
2024-05-09T17:58:12.171Z,46.22
2024-05-09T18:00:42.831Z,46.12
2024-05-09T18:03:12.298Z,46.47
2024-05-09T18:05:44.731Z,46.75
2024-05-09T18:08:13.454Z,46.89
2024-05-09T18:10:43.821Z,47.51
2024-05-09T18:13:13.694Z,47.96
2024-05-09T18:15:45.310Z,48.20
2024-05-09T18:18:13.438Z,48.32
2024-05-09T18:20:45.837Z,48.87
2024-05-09T18:23:16.434Z,49.32
2024-05-09T18:25:48.461Z,49.75
2024-05-09T18:28:17.465Z,50.78
2024-05-09T18:30:48.231Z,51.51
2024-05-09T18:33:16.340Z,52.03
2024-05-09T18:35:47.541Z,52.33
2024-05-09T18:38:15.255Z,52.68
2024-05-09T18:40:48.500Z,53.20
2024-05-09T18:43:17.297Z,54.09
2024-05-09T18:45:48.393Z,54.44
2024-05-09T18:48:16.302Z,54.95
2024-05-09T18:50:46.496Z,55.31
2024-05-09T18:53:14.626Z,55.41
2024-05-09T18:55:45.061Z,56.29
2024-05-09T18:58:12.724Z,56.62
2024-05-09T19:00:45.442Z,57.17
2024-05-09T19:03:15.933Z,57.23
2024-05-09T19:05:47.102Z,57.38
2024-05-09T19:08:15.522Z,57.31
2024-05-09T19:10:46.316Z,57.84
2024-05-09T19:13:14.772Z,58.40
2024-05-09T19:15:45.674Z,58.55
2024-05-09T19:18:14.378Z,58.69
2024-05-09T19:20:46.492Z,58.84
2024-05-09T19:23:14.631Z,58.82
2024-05-09T19:25:45.934Z,59.26
2024-05-09T19:28:13.467Z,59.76
2024-05-09T19:30:43.562Z,59.91
2024-05-09T19:33:12.880Z,60.04
2024-05-09T19:35:45.555Z,60.31
2024-05-09T19:38:13.907Z,60.28
2024-05-09T19:40:44.708Z,60.35
2024-05-09T19:43:12.439Z,60.62
2024-05-09T19:45:43.611Z,60.84
2024-05-09T19:48:11.353Z,61.27
2024-05-09T19:50:44.153Z,61.48
2024-05-09T19:53:15.679Z,61.39
2024-05-09T19:55:45.875Z,61.89
2024-05-09T19:58:13.965Z,61.88
2024-05-09T20:00:44.903Z,61.55
2024-05-09T20:03:15.500Z,62.24
2024-05-09T20:05:48.510Z,62.51
2024-05-09T20:08:16.416Z,62.81
2024-05-09T20:10:46.757Z,62.91
2024-05-09T20:13:14.488Z,63.04
2024-05-09T20:15:44.759Z,63.25
2024-05-09T20:18:12.849Z,63.46
2024-05-09T20:20:44.965Z,63.69
2024-05-09T20:23:14.021Z,63.86
2024-05-09T20:25:46.475Z,64.19
2024-05-09T20:28:13.953Z,64.52
2024-05-09T20:30:44.174Z,65.01
2024-05-09T20:33:12.440Z,64.59
2024-05-09T20:35:42.724Z,64.55
2024-05-09T20:38:10.146Z,64.86
2024-05-09T20:40:40.419Z,64.96
2024-05-09T20:43:12.005Z,65.36
2024-05-09T20:45:42.491Z,65.49
2024-05-09T20:48:10.276Z,65.32
2024-05-09T20:50:42.277Z,65.45
2024-05-09T20:53:13.115Z,65.60
2024-05-09T20:55:44.932Z,65.70
2024-05-09T20:58:13.445Z,65.85
2024-05-09T21:00:45.708Z,66.03
2024-05-09T21:03:16.158Z,66.28
2024-05-09T21:05:47.819Z,66.02
2024-05-09T21:08:15.989Z,66.49
2024-05-09T21:10:46.280Z,66.94
2024-05-09T21:13:14.601Z,66.94
2024-05-09T21:15:44.867Z,67.58
2024-05-09T21:18:12.610Z,67.59
2024-05-09T21:20:44.398Z,67.50
2024-05-09T21:23:11.443Z,67.43
2024-05-09T21:25:41.601Z,67.94
2024-05-09T21:28:09.315Z,68.37
2024-05-09T21:30:42.521Z,68.23
2024-05-09T21:33:13.135Z,68.54
2024-05-09T21:35:47.878Z,68.58
2024-05-09T21:38:15.802Z,68.98
2024-05-09T21:40:46.535Z,69.30
2024-05-09T21:43:14.437Z,68.85
2024-05-09T21:45:44.405Z,69.46
2024-05-09T21:48:13.235Z,69.24
2024-05-09T21:50:43.686Z,69.55
2024-05-09T21:53:12.711Z,69.56
2024-05-09T21:55:45.255Z,69.72
2024-05-09T21:58:14.071Z,69.78
2024-05-09T22:00:46.477Z,70.13
2024-05-09T22:03:14.718Z,70.11
2024-05-09T22:05:45.454Z,70.46
2024-05-09T22:08:13.337Z,70.95
2024-05-09T22:10:43.632Z,70.60
2024-05-09T22:13:11.303Z,70.84
2024-05-09T22:15:42.470Z,70.89
2024-05-09T22:18:11.036Z,71.06
2024-05-09T22:20:45.637Z,71.64
2024-05-09T22:23:14.885Z,71.40
2024-05-09T22:25:45.166Z,71.77
2024-05-09T22:28:15.633Z,71.70
2024-05-09T22:30:46.986Z,71.80
2024-05-09T22:33:15.666Z,71.79
2024-05-09T22:35:47.625Z,71.78
2024-05-09T22:38:15.169Z,71.76
2024-05-09T22:40:48.730Z,71.70
2024-05-09T22:43:23.483Z,71.96
2024-05-09T22:45:58.263Z,72.10
2024-05-09T22:48:26.485Z,72.22
2024-05-09T22:50:57.032Z,72.83
2024-05-09T22:53:25.829Z,72.77
2024-05-09T22:55:56.355Z,72.35
2024-05-09T22:58:24.412Z,73.19
2024-05-09T23:00:54.675Z,72.54
2024-05-09T23:03:23.009Z,73.07
2024-05-09T23:05:53.295Z,73.00
2024-05-09T23:08:20.948Z,73.14
2024-05-09T23:10:51.199Z,73.43
2024-05-09T23:13:18.898Z,73.81
2024-05-09T23:15:49.132Z,73.20
2024-05-09T23:18:16.807Z,73.36
2024-05-09T23:20:46.944Z,73.11
2024-05-09T23:23:14.672Z,73.25
2024-05-09T23:25:44.545Z,73.49
2024-05-09T23:28:13.019Z,73.23
2024-05-09T23:30:43.141Z,74.04
2024-05-09T23:33:12.964Z,73.83
2024-05-09T23:35:46.879Z,73.92
2024-05-09T23:38:14.536Z,74.49
2024-05-09T23:40:44.661Z,74.35
2024-05-09T23:43:12.840Z,74.18
2024-05-09T23:45:44.929Z,74.81
2024-05-09T23:48:12.934Z,74.93
2024-05-09T23:50:43.079Z,74.72
2024-05-09T23:53:11.204Z,74.86
2024-05-09T23:55:42.013Z,75.03
2024-05-09T23:58:12.272Z,74.91
